createdAt,value
2019-03-08T00:01:40.821Z,31.75
2019-03-08T00:04:10.624Z,31.72
2019-03-08T00:06:40.222Z,31.54
2019-03-08T00:09:09.673Z,31.39
2019-03-08T00:11:39.543Z,31.30
2019-03-08T00:14:09.076Z,31.26
2019-03-08T00:16:38.513Z,31.13
2019-03-08T00:19:10.087Z,30.94
2019-03-08T00:21:39.301Z,30.76
2019-03-08T00:24:10.915Z,30.64
2019-03-08T00:26:40.435Z,30.56
2019-03-08T00:29:10.052Z,30.41
2019-03-08T00:31:39.695Z,30.27
2019-03-08T00:34:09.217Z,30.08
2019-03-08T00:36:38.736Z,29.95
2019-03-08T00:39:08.286Z,29.83
2019-03-08T00:41:37.771Z,29.68
2019-03-08T00:44:07.388Z,29.63
2019-03-08T00:46:36.866Z,29.54
2019-03-08T00:49:08.012Z,29.46
2019-03-08T00:51:37.725Z,29.37
2019-03-08T00:54:07.160Z,29.34
2019-03-08T00:56:36.647Z,29.38
2019-03-08T00:59:06.394Z,29.49
2019-03-08T01:01:35.928Z,29.51
2019-03-08T01:04:05.441Z,29.48
2019-03-08T01:06:34.904Z,29.44
2019-03-08T01:09:05.591Z,29.31
2019-03-08T01:11:35.204Z,29.32
2019-03-08T01:14:04.845Z,29.32
2019-03-08T01:16:34.390Z,29.24
2019-03-08T01:19:03.929Z,29.30
2019-03-08T01:21:33.441Z,29.24
2019-03-08T01:24:03.054Z,29.21
2019-03-08T01:26:32.663Z,29.20
2019-03-08T01:29:02.120Z,29.17
2019-03-08T01:31:32.010Z,29.12
2019-03-08T01:34:01.500Z,29.14
2019-03-08T01:36:30.955Z,29.13
2019-03-08T01:39:00.808Z,29.10
2019-03-08T01:41:30.664Z,29.04
2019-03-08T01:44:00.132Z,28.97
2019-03-08T01:46:29.658Z,28.89
2019-03-08T01:48:59.138Z,28.77
2019-03-08T01:51:28.764Z,28.61
2019-03-08T01:53:58.394Z,28.49
2019-03-08T01:56:27.987Z,28.38
2019-03-08T01:58:57.417Z,28.30
2019-03-08T02:01:26.988Z,28.25
2019-03-08T02:03:56.503Z,28.20
2019-03-08T02:06:26.312Z,28.21
2019-03-08T02:08:55.892Z,28.28
2019-03-08T02:11:25.354Z,28.39
2019-03-08T02:13:54.797Z,28.48
2019-03-08T02:16:24.336Z,28.46
2019-03-08T02:18:53.792Z,28.46
2019-03-08T02:21:23.245Z,28.40
2019-03-08T02:23:52.697Z,28.43
2019-03-08T02:26:22.204Z,28.40
2019-03-08T02:28:52.102Z,28.48
2019-03-08T02:31:21.549Z,28.41
2019-03-08T02:33:51.349Z,28.44
2019-03-08T02:36:20.851Z,28.42
2019-03-08T02:38:50.364Z,28.45
2019-03-08T02:41:19.902Z,28.42
2019-03-08T02:43:49.408Z,28.34
2019-03-08T02:46:18.978Z,28.28
2019-03-08T02:48:48.505Z,28.24
2019-03-08T02:51:19.422Z,28.19
2019-03-08T02:53:49.001Z,28.05
2019-03-08T02:56:18.641Z,27.95
2019-03-08T02:58:48.111Z,27.84
2019-03-08T03:01:17.641Z,27.70
2019-03-08T03:03:47.226Z,27.61
2019-03-08T03:06:16.706Z,27.58
2019-03-08T03:08:46.205Z,27.62
2019-03-08T03:11:15.726Z,27.67
2019-03-08T03:13:45.198Z,27.77
2019-03-08T03:16:14.650Z,27.79
2019-03-08T03:18:44.170Z,27.84
2019-03-08T03:21:13.600Z,27.80
2019-03-08T03:23:43.043Z,27.81
2019-03-08T03:26:12.602Z,27.78
2019-03-08T03:28:42.223Z,27.83
2019-03-08T03:31:11.813Z,27.88
2019-03-08T03:33:41.298Z,27.80
2019-03-08T03:36:10.756Z,27.86
2019-03-08T03:38:40.230Z,27.91
2019-03-08T03:41:09.937Z,27.89
2019-03-08T03:43:39.410Z,27.93
2019-03-08T03:46:08.858Z,27.89
2019-03-08T03:48:38.331Z,27.83
2019-03-08T03:51:07.876Z,27.83
2019-03-08T03:53:37.311Z,27.82
2019-03-08T03:56:06.975Z,27.80
2019-03-08T03:58:36.479Z,27.72
2019-03-08T04:01:22.437Z,27.69
2019-03-08T04:03:51.916Z,27.69
2019-03-08T04:06:21.598Z,27.62
2019-03-08T04:08:51.095Z,27.55
2019-03-08T04:11:20.655Z,27.42
2019-03-08T04:13:50.111Z,27.31
2019-03-08T04:16:19.699Z,27.29
2019-03-08T04:18:49.166Z,27.33
2019-03-08T04:21:18.677Z,27.35
2019-03-08T04:23:48.180Z,27.43
2019-03-08T04:26:17.673Z,27.45
2019-03-08T04:28:47.170Z,27.45
2019-03-08T04:31:16.695Z,27.51
2019-03-08T04:33:46.249Z,27.46
2019-03-08T04:36:15.714Z,27.46
2019-03-08T04:38:45.226Z,27.40
2019-03-08T04:41:14.711Z,27.42
2019-03-08T04:43:44.189Z,27.37
2019-03-08T04:46:13.732Z,27.38
2019-03-08T04:48:43.394Z,27.40
2019-03-08T04:51:12.899Z,27.38
2019-03-08T04:53:42.441Z,27.36
2019-03-08T04:56:11.901Z,27.34
2019-03-08T04:58:41.359Z,27.30
2019-03-08T05:01:11.014Z,27.26
2019-03-08T05:03:40.486Z,27.24
2019-03-08T05:06:09.959Z,27.22
2019-03-08T05:08:39.479Z,27.21
2019-03-08T05:11:08.946Z,27.19
2019-03-08T05:13:38.415Z,27.17
2019-03-08T05:16:08.326Z,27.19
2019-03-08T05:18:37.904Z,27.24
2019-03-08T05:21:07.361Z,27.21
2019-03-08T05:23:36.898Z,27.21
2019-03-08T05:26:06.508Z,27.18
2019-03-08T05:28:35.969Z,27.24
2019-03-08T05:31:05.602Z,27.24
2019-03-08T05:33:35.118Z,27.23
2019-03-08T05:36:04.577Z,27.25
2019-03-08T05:38:34.033Z,27.24
2019-03-08T05:41:03.640Z,27.21
2019-03-08T05:43:33.305Z,27.21
2019-03-08T05:46:02.798Z,27.23
2019-03-08T05:48:33.788Z,27.18
2019-03-08T05:51:03.252Z,27.21
2019-03-08T05:53:32.750Z,27.25
2019-03-08T05:56:02.253Z,27.25
2019-03-08T05:58:31.742Z,27.16
2019-03-08T06:01:01.239Z,27.10
2019-03-08T06:03:30.737Z,27.03
2019-03-08T06:06:00.179Z,26.99
2019-03-08T06:08:29.768Z,26.97
2019-03-08T06:11:00.240Z,26.98
2019-03-08T06:13:29.697Z,26.96
2019-03-08T06:15:59.235Z,26.98
2019-03-08T06:18:28.741Z,26.93
2019-03-08T06:20:58.198Z,26.79
2019-03-08T06:23:27.737Z,26.70
2019-03-08T06:25:57.679Z,26.61
2019-03-08T06:28:27.131Z,26.49
2019-03-08T06:30:56.688Z,26.43
2019-03-08T06:33:26.160Z,26.37
2019-03-08T06:35:55.646Z,26.36
2019-03-08T06:38:25.163Z,26.33
2019-03-08T06:40:54.969Z,26.29
2019-03-08T06:43:24.457Z,26.30
2019-03-08T06:45:53.916Z,26.32
2019-03-08T06:48:23.377Z,26.33
2019-03-08T06:50:52.965Z,26.37
2019-03-08T06:53:22.438Z,26.40
2019-03-08T06:55:51.901Z,26.72
2019-03-08T06:58:42.221Z,27.52
2019-03-08T07:01:14.912Z,28.03
2019-03-08T07:03:44.383Z,28.41
2019-03-08T07:06:13.959Z,28.46
2019-03-08T07:08:43.426Z,28.46
2019-03-08T07:11:12.919Z,28.74
2019-03-08T07:13:42.407Z,28.85
2019-03-08T07:16:14.906Z,28.95
2019-03-08T07:18:44.889Z,29.02
2019-03-08T07:21:31.904Z,29.26
2019-03-08T07:24:32.581Z,29.62
2019-03-08T07:27:15.496Z,29.70
2019-03-08T07:30:15.770Z,29.79
2019-03-08T07:32:55.973Z,29.89
2019-03-08T07:35:53.050Z,30.09
2019-03-08T07:38:38.766Z,30.00
2019-03-08T07:41:17.408Z,30.24
2019-03-08T07:44:14.594Z,30.21
2019-03-08T07:46:59.423Z,30.44
2019-03-08T07:49:56.445Z,30.52
2019-03-08T07:52:37.223Z,30.60
2019-03-08T07:55:24.169Z,30.71
2019-03-08T07:58:15.404Z,30.81
2019-03-08T08:01:06.759Z,30.89
2019-03-08T08:03:58.088Z,30.93
2019-03-08T08:06:51.210Z,30.81
2019-03-08T08:09:39.642Z,30.71
2019-03-08T08:12:31.003Z,30.61
2019-03-08T08:15:19.416Z,30.51
2019-03-08T08:18:03.494Z,30.42
2019-03-08T08:20:48.813Z,30.32
2019-03-08T08:23:49.524Z,30.24
2019-03-08T08:26:42.346Z,30.14
2019-03-08T08:29:35.064Z,30.06
2019-03-08T08:32:19.313Z,29.94
2019-03-08T08:35:11.231Z,29.83
2019-03-08T08:38:05.347Z,29.73
2019-03-08T08:40:52.325Z,29.64
2019-03-08T08:43:38.588Z,29.58
2019-03-08T08:46:29.741Z,29.51
2019-03-08T08:49:23.952Z,29.44
2019-03-08T08:52:12.295Z,29.37
2019-03-08T08:55:01.624Z,29.29
2019-03-08T08:57:48.853Z,29.26
2019-03-08T09:00:37.890Z,29.21
2019-03-08T09:03:25.376Z,29.14
2019-03-08T09:06:20.942Z,29.11
2019-03-08T09:09:07.901Z,29.05
2019-03-08T09:11:56.296Z,29.03
2019-03-08T09:14:36.545Z,29.00
2019-03-08T09:17:11.689Z,28.97
2019-03-08T09:20:03.125Z,28.94
2019-03-08T09:22:51.501Z,28.89
2019-03-08T09:25:35.023Z,28.86
2019-03-08T09:28:16.710Z,28.79
2019-03-08T09:31:08.230Z,28.74
2019-03-08T09:33:53.440Z,28.71
2019-03-08T09:36:40.866Z,28.66
2019-03-08T09:39:35.340Z,28.61
2019-03-08T09:42:26.805Z,28.55
2019-03-08T09:45:14.223Z,28.53
2019-03-08T09:48:02.766Z,28.49
2019-03-08T09:50:39.251Z,28.44
2019-03-08T09:53:36.713Z,28.42
2019-03-08T09:56:22.185Z,28.40
2019-03-08T09:59:27.502Z,28.36
2019-03-08T10:02:19.418Z,28.33
2019-03-08T10:05:17.103Z,28.30
2019-03-08T10:08:11.942Z,28.31
2019-03-08T10:11:06.158Z,28.27
2019-03-08T10:13:50.973Z,28.24
2019-03-08T10:16:27.544Z,28.22
2019-03-08T10:19:31.353Z,28.18
2019-03-08T10:22:08.966Z,28.17
2019-03-08T10:25:09.605Z,28.15
2019-03-08T10:28:03.795Z,28.14
2019-03-08T10:30:45.814Z,28.13
2019-03-08T10:33:26.452Z,28.10
2019-03-08T10:36:20.528Z,28.07
2019-03-08T10:39:11.848Z,28.06
2019-03-08T10:42:00.247Z,28.00
2019-03-08T10:44:44.381Z,27.97
2019-03-08T10:47:38.508Z,27.96
2019-03-08T10:50:18.761Z,27.92
2019-03-08T10:53:00.574Z,27.92
2019-03-08T10:55:43.291Z,27.88
2019-03-08T10:58:43.625Z,27.83
2019-03-08T11:01:41.072Z,27.83
2019-03-08T11:04:34.378Z,27.76
2019-03-08T11:07:21.023Z,27.77
2019-03-08T11:10:10.452Z,27.75
2019-03-08T11:12:53.984Z,27.72
2019-03-08T11:15:42.336Z,27.73
2019-03-08T11:18:21.316Z,27.72
2019-03-08T11:21:05.724Z,27.68
2019-03-08T11:23:51.427Z,27.69
2019-03-08T11:26:47.685Z,27.67
2019-03-08T11:29:38.878Z,27.67
2019-03-08T11:32:22.778Z,27.64
2019-03-08T11:35:04.769Z,27.61
2019-03-08T11:37:55.960Z,27.60
2019-03-08T11:40:44.155Z,27.60
2019-03-08T11:43:47.712Z,27.60
2019-03-08T11:46:31.169Z,27.58
2019-03-08T11:49:28.851Z,27.55
2019-03-08T11:52:22.460Z,27.54
2019-03-08T11:55:09.760Z,27.51
2019-03-08T11:57:56.867Z,27.49
2019-03-08T12:01:04.047Z,27.48
2019-03-08T12:03:55.447Z,27.45
2019-03-08T12:06:35.630Z,27.46
2019-03-08T12:09:19.805Z,27.44
2019-03-08T12:12:16.991Z,27.43
2019-03-08T12:14:57.042Z,27.38
2019-03-08T12:17:51.039Z,27.37
2019-03-08T12:20:39.585Z,27.34
2019-03-08T12:23:18.649Z,27.34
2019-03-08T12:26:00.893Z,27.30
2019-03-08T12:28:48.051Z,27.26
2019-03-08T12:31:39.181Z,27.23
2019-03-08T12:34:30.829Z,27.18
2019-03-08T12:37:17.747Z,27.19
2019-03-08T12:40:09.462Z,27.16
2019-03-08T12:42:57.843Z,27.14
2019-03-08T12:45:49.736Z,27.14
2019-03-08T12:48:53.331Z,27.15
2019-03-08T12:51:30.067Z,27.13
2019-03-08T12:54:22.035Z,27.12
2019-03-08T12:57:12.954Z,27.09
2019-03-08T13:00:03.981Z,27.05
2019-03-08T13:02:58.134Z,27.04
2019-03-08T13:05:46.744Z,27.02
2019-03-08T13:08:44.237Z,26.99
2019-03-08T13:11:13.740Z,26.99
2019-03-08T13:13:43.257Z,26.98
2019-03-08T13:16:12.921Z,26.97
2019-03-08T13:18:42.439Z,26.94
2019-03-08T13:21:11.905Z,26.92
2019-03-08T13:23:41.355Z,26.90
2019-03-08T13:26:10.891Z,26.90
2019-03-08T13:28:40.385Z,26.87
2019-03-08T13:31:09.936Z,26.84
2019-03-08T13:33:39.457Z,26.85
2019-03-08T13:36:09.623Z,26.83
2019-03-08T13:38:39.084Z,26.82
2019-03-08T13:41:08.646Z,26.82
2019-03-08T13:43:38.435Z,26.79
2019-03-08T13:46:08.010Z,26.78
2019-03-08T13:48:37.563Z,26.84
2019-03-08T13:51:07.180Z,27.08
2019-03-08T13:53:36.637Z,27.31
2019-03-08T13:56:06.370Z,27.51
2019-03-08T13:58:38.112Z,27.56
2019-03-08T14:01:07.880Z,27.56
2019-03-08T14:03:37.830Z,27.55
2019-03-08T14:06:08.443Z,27.53
2019-03-08T14:08:38.015Z,27.53
2019-03-08T14:11:07.696Z,27.52
2019-03-08T14:13:37.391Z,27.46
2019-03-08T14:16:06.882Z,27.42
2019-03-08T14:18:36.430Z,27.39
2019-03-08T14:21:06.210Z,27.34
2019-03-08T14:23:36.124Z,27.36
2019-03-08T14:26:06.224Z,27.76
2019-03-08T14:28:35.830Z,28.14
2019-03-08T14:31:14.524Z,28.42
2019-03-08T14:33:46.343Z,28.62
2019-03-08T14:36:16.002Z,28.91
2019-03-08T14:38:45.541Z,29.10
2019-03-08T14:41:24.536Z,29.14
2019-03-08T14:44:10.980Z,29.31
2019-03-08T14:46:56.492Z,29.25
2019-03-08T14:49:25.286Z,29.26
2019-03-08T14:51:54.775Z,29.21
2019-03-08T14:54:24.686Z,29.16
2019-03-08T14:56:54.244Z,29.15
2019-03-08T14:59:23.832Z,28.93
2019-03-08T15:01:53.362Z,28.86
2019-03-08T15:04:22.871Z,28.72
2019-03-08T15:06:52.775Z,28.65
2019-03-08T15:09:22.339Z,28.65
2019-03-08T15:11:52.176Z,28.72
2019-03-08T15:14:21.885Z,28.61
2019-03-08T15:16:51.466Z,28.50
2019-03-08T15:19:21.247Z,28.48
2019-03-08T15:21:50.726Z,28.35
2019-03-08T15:24:20.219Z,28.49
2019-03-08T15:26:49.947Z,28.62
2019-03-08T15:29:19.460Z,28.62
2019-03-08T15:31:49.034Z,28.55
2019-03-08T15:34:21.315Z,28.52
2019-03-08T15:36:49.933Z,28.50
2019-03-08T15:39:20.315Z,28.66
2019-03-08T15:41:50.124Z,28.68
2019-03-08T15:44:19.611Z,28.67
2019-03-08T15:46:49.459Z,28.60
2019-03-08T15:49:19.043Z,28.63
2019-03-08T15:51:48.563Z,29.27
2019-03-08T15:54:18.073Z,29.79
2019-03-08T15:56:47.654Z,29.82
2019-03-08T15:59:17.163Z,29.84
2019-03-08T16:01:46.640Z,29.91
2019-03-08T16:04:18.958Z,29.80
2019-03-08T16:06:48.402Z,30.00
2019-03-08T16:09:18.050Z,30.00
2019-03-08T16:11:47.626Z,29.95
2019-03-08T16:14:18.910Z,30.04
2019-03-08T16:16:49.151Z,30.02
2019-03-08T16:19:20.939Z,30.11
2019-03-08T16:21:50.839Z,30.24
2019-03-08T16:24:21.554Z,30.39
2019-03-08T16:26:51.088Z,30.39
2019-03-08T16:29:20.510Z,30.39
2019-03-08T16:32:07.497Z,30.37
2019-03-08T16:34:37.917Z,30.48
2019-03-08T16:37:24.756Z,30.54
2019-03-08T16:40:10.429Z,30.65
2019-03-08T16:42:50.665Z,30.76
2019-03-08T16:45:38.779Z,30.74
2019-03-08T16:48:14.664Z,30.65
2019-03-08T16:50:56.193Z,30.55
2019-03-08T16:53:42.089Z,30.49
2019-03-08T16:56:30.488Z,30.53
2019-03-08T16:59:15.389Z,30.39
2019-03-08T17:01:55.735Z,30.30
2019-03-08T17:04:47.104Z,30.20
2019-03-08T17:07:38.389Z,30.09
2019-03-08T17:10:29.979Z,30.01
2019-03-08T17:13:37.354Z,29.91
2019-03-08T17:16:37.901Z,29.83
2019-03-08T17:19:22.178Z,29.71
2019-03-08T17:22:07.302Z,29.63
2019-03-08T17:25:10.768Z,29.53
2019-03-08T17:28:09.998Z,29.45
2019-03-08T17:31:01.885Z,29.33
2019-03-08T17:33:51.609Z,29.25
2019-03-08T17:36:42.672Z,29.18
2019-03-08T17:39:28.338Z,29.12
2019-03-08T17:42:06.535Z,29.09
2019-03-08T17:44:58.154Z,29.06
2019-03-08T17:47:45.179Z,29.04
2019-03-08T17:50:47.272Z,28.94
2019-03-08T17:53:36.861Z,28.88
2019-03-08T17:56:15.229Z,28.80
2019-03-08T17:59:02.641Z,28.76
2019-03-08T18:01:58.819Z,28.73
2019-03-08T18:05:04.640Z,28.66
2019-03-08T18:07:51.823Z,28.62
2019-03-08T18:10:38.385Z,28.63
2019-03-08T18:13:26.261Z,28.53
2019-03-08T18:16:02.670Z,28.48
2019-03-08T18:18:51.131Z,28.43
2019-03-08T18:21:38.158Z,28.34
2019-03-08T18:24:36.327Z,28.29
2019-03-08T18:27:27.812Z,28.22
2019-03-08T18:30:07.286Z,28.16
2019-03-08T18:32:59.384Z,28.11
2019-03-08T18:35:54.449Z,28.06
2019-03-08T18:38:41.514Z,28.00
2019-03-08T18:42:17.693Z,27.95
2019-03-08T18:45:39.369Z,27.90
2019-03-08T18:48:28.621Z,27.87
2019-03-08T18:51:15.958Z,27.79
2019-03-08T18:54:06.660Z,27.73
2019-03-08T18:57:17.676Z,27.69
2019-03-08T19:00:24.824Z,27.65
2019-03-08T19:03:13.710Z,27.62
2019-03-08T19:06:17.258Z,27.60
2019-03-08T19:09:03.990Z,27.55
2019-03-08T19:12:04.274Z,27.54
2019-03-08T19:15:01.594Z,27.50
2019-03-08T19:17:57.271Z,27.51
2019-03-08T19:20:45.146Z,27.49
2019-03-08T19:23:34.663Z,27.44
2019-03-08T19:26:35.197Z,27.42
2019-03-08T19:29:12.685Z,27.38
2019-03-08T19:32:07.390Z,27.46
2019-03-08T19:35:29.851Z,27.47
2019-03-08T19:38:12.910Z,27.40
2019-03-08T19:40:57.195Z,27.36
2019-03-08T19:44:06.697Z,27.34
2019-03-08T19:46:55.236Z,27.26
2019-03-08T19:49:46.663Z,27.20
2019-03-08T19:52:28.839Z,27.13
2019-03-08T19:55:23.366Z,27.07
2019-03-08T19:58:21.112Z,27.03
2019-03-08T20:01:03.717Z,27.02
2019-03-08T20:03:50.546Z,27.00
2019-03-08T20:06:42.708Z,26.96
2019-03-08T20:09:30.757Z,26.91
2019-03-08T20:12:34.533Z,26.87
2019-03-08T20:15:27.923Z,26.83
2019-03-08T20:18:25.929Z,26.77
2019-03-08T20:21:07.864Z,26.72
2019-03-08T20:23:58.593Z,26.71
2019-03-08T20:26:47.832Z,26.69
2019-03-08T20:30:20.208Z,26.75
2019-03-08T20:32:58.618Z,26.79
2019-03-08T20:35:37.602Z,26.73
2019-03-08T20:38:19.139Z,26.68
2019-03-08T20:41:16.135Z,26.67
2019-03-08T20:43:56.924Z,26.64
2019-03-08T20:46:56.388Z,26.58
2019-03-08T20:50:05.858Z,26.57
2019-03-08T20:52:37.232Z,26.65
2019-03-08T20:55:07.496Z,26.68
2019-03-08T20:57:37.164Z,26.68
2019-03-08T21:01:06.945Z,26.69
2019-03-08T21:03:15.615Z,26.67
2019-03-08T21:05:54.858Z,26.72
2019-03-08T21:09:19.713Z,26.84
2019-03-08T21:13:02.426Z,26.93
2019-03-08T21:15:53.496Z,27.05
2019-03-08T21:18:49.019Z,27.09
2019-03-08T21:21:18.831Z,27.07
2019-03-08T21:23:51.686Z,26.98
2019-03-08T21:26:21.409Z,26.90
2019-03-08T21:28:53.265Z,26.83
2019-03-08T21:31:22.849Z,26.74
2019-03-08T21:34:29.059Z,26.69
2019-03-08T21:36:58.646Z,26.71
2019-03-08T21:39:28.381Z,26.69
2019-03-08T21:42:31.924Z,26.62
2019-03-08T21:45:01.726Z,26.61
2019-03-08T21:47:31.326Z,26.55
2019-03-08T21:50:00.925Z,26.49
2019-03-08T21:53:30.261Z,26.49
2019-03-08T21:55:55.657Z,26.49
2019-03-08T21:58:25.264Z,26.53
2019-03-08T22:01:05.473Z,26.49
2019-03-08T22:03:37.509Z,26.49
2019-03-08T22:06:09.658Z,26.48
2019-03-08T22:08:45.953Z,26.44
2019-03-08T22:11:49.855Z,26.48
2019-03-08T22:14:30.983Z,26.43
2019-03-08T22:17:23.141Z,26.41
2019-03-08T22:23:59.831Z,26.42
2019-03-08T22:26:38.661Z,26.50
2019-03-08T22:29:19.034Z,26.52
2019-03-08T22:31:51.825Z,26.55
2019-03-08T22:34:23.850Z,26.53
2019-03-08T22:36:53.387Z,26.53
2019-03-08T22:39:22.886Z,26.56
2019-03-08T22:41:52.474Z,26.57
2019-03-08T22:44:21.970Z,26.53
2019-03-08T22:46:51.531Z,26.56
2019-03-08T22:49:21.075Z,26.56
2019-03-08T22:51:50.659Z,26.58
2019-03-08T22:54:20.171Z,26.54
2019-03-08T22:56:49.789Z,26.51
2019-03-08T22:59:19.288Z,26.46
2019-03-08T23:01:54.066Z,26.47
2019-03-08T23:04:23.568Z,26.42
2019-03-08T23:06:53.109Z,26.40
2019-03-08T23:09:22.804Z,26.37
2019-03-08T23:11:52.336Z,26.36
2019-03-08T23:14:21.844Z,26.36
2019-03-08T23:16:51.362Z,26.43
2019-03-08T23:19:20.932Z,26.49
2019-03-08T23:21:50.496Z,26.51
2019-03-08T23:24:20.009Z,26.55
2019-03-08T23:27:07.122Z,26.55
2019-03-08T23:29:41.616Z,26.51
2019-03-08T23:32:24.186Z,26.54
2019-03-08T23:34:53.662Z,26.62
2019-03-08T23:37:23.208Z,26.62
2019-03-08T23:39:52.838Z,26.60
2019-03-08T23:42:22.627Z,26.58
2019-03-08T23:44:52.201Z,26.57
2019-03-08T23:47:21.702Z,26.57
2019-03-08T23:49:51.544Z,26.55
2019-03-08T23:52:21.098Z,26.55
2019-03-08T23:54:50.593Z,26.56
2019-03-08T23:57:20.116Z,26.57
2019-03-08T23:59:49.607Z,26.54
